sensor_id;sensor_type;location;lat;lon;timestamp;P1;durP1;ratioP1;P2;durP2;ratioP2
1414;SDS011;702;49.466;11.086;2023-07-20T00:00:18;8.33;;;5.20;;
1414;SDS011;702;49.466;11.086;2023-07-20T00:02:45;5.33;;;4.83;;
1414;SDS011;702;49.466;11.086;2023-07-20T00:05:17;7.30;;;5.13;;
1414;SDS011;702;49.466;11.086;2023-07-20T00:07:46;4.77;;;4.37;;
1414;SDS011;702;49.466;11.086;2023-07-20T00:10:17;5.03;;;4.63;;
1414;SDS011;702;49.466;11.086;2023-07-20T00:12:44;5.73;;;4.83;;
1414;SDS011;702;49.466;11.086;2023-07-20T00:15:12;5.47;;;4.97;;
1414;SDS011;702;49.466;11.086;2023-07-20T00:17:40;4.90;;;4.40;;
1414;SDS011;702;49.466;11.086;2023-07-20T00:20:07;4.60;;;4.20;;
1414;SDS011;702;49.466;11.086;2023-07-20T00:22:37;5.00;;;4.33;;
1414;SDS011;702;49.466;11.086;2023-07-20T00:25:05;5.30;;;4.70;;
1414;SDS011;702;49.466;11.086;2023-07-20T00:27:33;5.30;;;4.80;;
1414;SDS011;702;49.466;11.086;2023-07-20T00:30:00;5.37;;;4.87;;
1414;SDS011;702;49.466;11.086;2023-07-20T00:32:28;5.67;;;5.17;;
1414;SDS011;702;49.466;11.086;2023-07-20T00:34:55;5.47;;;4.60;;
1414;SDS011;702;49.466;11.086;2023-07-20T00:37:22;5.73;;;4.93;;
1414;SDS011;702;49.466;11.086;2023-07-20T00:39:51;5.40;;;4.90;;
1414;SDS011;702;49.466;11.086;2023-07-20T00:42:19;5.70;;;5.17;;
1414;SDS011;702;49.466;11.086;2023-07-20T00:44:46;8.00;;;5.63;;
1414;SDS011;702;49.466;11.086;2023-07-20T00:47:14;5.27;;;4.40;;
1414;SDS011;702;49.466;11.086;2023-07-20T00:49:41;6.10;;;5.50;;
1414;SDS011;702;49.466;11.086;2023-07-20T00:52:10;5.70;;;5.20;;
1414;SDS011;702;49.466;11.086;2023-07-20T00:54:40;8.23;;;5.23;;
1414;SDS011;702;49.466;11.086;2023-07-20T00:57:09;6.03;;;5.43;;
1414;SDS011;702;49.466;11.086;2023-07-20T00:59:36;5.90;;;5.13;;
1414;SDS011;702;49.466;11.086;2023-07-20T01:02:04;5.43;;;4.93;;
1414;SDS011;702;49.466;11.086;2023-07-20T01:04:31;5.83;;;5.27;;
1414;SDS011;702;49.466;11.086;2023-07-20T01:07:00;7.57;;;5.20;;
1414;SDS011;702;49.466;11.086;2023-07-20T01:09:39;5.47;;;4.87;;
1414;SDS011;702;49.466;11.086;2023-07-20T01:12:16;6.07;;;5.30;;
1414;SDS011;702;49.466;11.086;2023-07-20T01:14:49;6.37;;;5.77;;
1414;SDS011;702;49.466;11.086;2023-07-20T01:17:17;5.60;;;5.10;;
1414;SDS011;702;49.466;11.086;2023-07-20T01:19:44;6.13;;;5.63;;
1414;SDS011;702;49.466;11.086;2023-07-20T01:22:23;5.30;;;4.80;;
1414;SDS011;702;49.466;11.086;2023-07-20T01:25:32;8.53;;;5.40;;
1414;SDS011;702;49.466;11.086;2023-07-20T01:28:22;6.03;;;5.53;;
1414;SDS011;702;49.466;11.086;2023-07-20T01:31:18;5.43;;;4.93;;
1414;SDS011;702;49.466;11.086;2023-07-20T01:33:50;7.33;;;5.40;;
1414;SDS011;702;49.466;11.086;2023-07-20T01:36:21;6.03;;;5.43;;
1414;SDS011;702;49.466;11.086;2023-07-20T01:38:50;6.10;;;5.60;;
1414;SDS011;702;49.466;11.086;2023-07-20T01:41:19;6.80;;;6.00;;
1414;SDS011;702;49.466;11.086;2023-07-20T01:43:47;6.37;;;5.07;;
1414;SDS011;702;49.466;11.086;2023-07-20T01:46:14;5.67;;;5.17;;
1414;SDS011;702;49.466;11.086;2023-07-20T01:48:43;6.90;;;6.20;;
1414;SDS011;702;49.466;11.086;2023-07-20T01:51:10;6.50;;;5.90;;
1414;SDS011;702;49.466;11.086;2023-07-20T01:53:37;5.73;;;5.20;;
1414;SDS011;702;49.466;11.086;2023-07-20T01:56:04;6.37;;;5.53;;
1414;SDS011;702;49.466;11.086;2023-07-20T01:58:31;7.10;;;6.30;;
1414;SDS011;702;49.466;11.086;2023-07-20T02:00:59;8.10;;;7.30;;
1414;SDS011;702;49.466;11.086;2023-07-20T02:03:27;7.47;;;6.03;;
1414;SDS011;702;49.466;11.086;2023-07-20T02:05:55;9.13;;;6.97;;
1414;SDS011;702;49.466;11.086;2023-07-20T02:08:23;7.50;;;6.00;;
1414;SDS011;702;49.466;11.086;2023-07-20T02:10:50;7.47;;;6.77;;
1414;SDS011;702;49.466;11.086;2023-07-20T02:13:18;8.23;;;7.20;;
1414;SDS011;702;49.466;11.086;2023-07-20T02:15:45;7.67;;;6.80;;
1414;SDS011;702;49.466;11.086;2023-07-20T02:18:14;7.30;;;6.70;;
1414;SDS011;702;49.466;11.086;2023-07-20T02:20:42;7.40;;;6.70;;
1414;SDS011;702;49.466;11.086;2023-07-20T02:23:11;7.30;;;6.60;;
1414;SDS011;702;49.466;11.086;2023-07-20T02:25:38;6.57;;;5.97;;
1414;SDS011;702;49.466;11.086;2023-07-20T02:28:06;7.67;;;6.93;;
1414;SDS011;702;49.466;11.086;2023-07-20T02:30:34;6.97;;;6.30;;
1414;SDS011;702;49.466;11.086;2023-07-20T02:33:04;12.53;;;7.23;;
1414;SDS011;702;49.466;11.086;2023-07-20T02:35:32;7.23;;;6.03;;
1414;SDS011;702;49.466;11.086;2023-07-20T02:37:59;8.33;;;7.20;;
1414;SDS011;702;49.466;11.086;2023-07-20T02:40:28;8.37;;;7.57;;
1414;SDS011;702;49.466;11.086;2023-07-20T02:42:55;7.60;;;6.93;;
1414;SDS011;702;49.466;11.086;2023-07-20T02:45:23;7.97;;;7.13;;
1414;SDS011;702;49.466;11.086;2023-07-20T02:47:50;8.50;;;6.73;;
1414;SDS011;702;49.466;11.086;2023-07-20T02:50:17;8.37;;;7.57;;
1414;SDS011;702;49.466;11.086;2023-07-20T02:52:44;7.27;;;6.67;;
1414;SDS011;702;49.466;11.086;2023-07-20T02:55:11;7.00;;;6.30;;
1414;SDS011;702;49.466;11.086;2023-07-20T02:57:40;7.20;;;6.50;;
1414;SDS011;702;49.466;11.086;2023-07-20T03:00:08;9.10;;;7.17;;
1414;SDS011;702;49.466;11.086;2023-07-20T03:02:36;9.03;;;7.00;;
1414;SDS011;702;49.466;11.086;2023-07-20T03:05:04;7.73;;;6.83;;
1414;SDS011;702;49.466;11.086;2023-07-20T03:07:32;7.90;;;7.00;;
1414;SDS011;702;49.466;11.086;2023-07-20T03:10:00;7.57;;;6.87;;
1414;SDS011;702;49.466;11.086;2023-07-20T03:12:28;7.80;;;7.10;;
1414;SDS011;702;49.466;11.086;2023-07-20T03:14:56;8.67;;;7.30;;
1414;SDS011;702;49.466;11.086;2023-07-20T03:17:24;7.33;;;6.73;;
1414;SDS011;702;49.466;11.086;2023-07-20T03:19:51;8.00;;;7.20;;
1414;SDS011;702;49.466;11.086;2023-07-20T03:22:18;8.10;;;7.03;;
1414;SDS011;702;49.466;11.086;2023-07-20T03:24:46;8.17;;;7.43;;
1414;SDS011;702;49.466;11.086;2023-07-20T03:27:14;8.23;;;7.47;;
1414;SDS011;702;49.466;11.086;2023-07-20T03:29:41;8.00;;;6.30;;
1414;SDS011;702;49.466;11.086;2023-07-20T03:32:10;8.47;;;7.67;;
1414;SDS011;702;49.466;11.086;2023-07-20T03:34:37;8.37;;;6.97;;
1414;SDS011;702;49.466;11.086;2023-07-20T03:37:05;7.30;;;6.70;;
1414;SDS011;702;49.466;11.086;2023-07-20T03:39:32;8.47;;;7.10;;
1414;SDS011;702;49.466;11.086;2023-07-20T03:41:59;9.20;;;6.93;;
1414;SDS011;702;49.466;11.086;2023-07-20T03:44:26;7.87;;;7.10;;
1414;SDS011;702;49.466;11.086;2023-07-20T03:46:54;8.60;;;6.37;;
1414;SDS011;702;49.466;11.086;2023-07-20T03:49:23;6.43;;;5.83;;
1414;SDS011;702;49.466;11.086;2023-07-20T03:51:50;7.00;;;6.30;;
1414;SDS011;702;49.466;11.086;2023-07-20T03:54:18;8.20;;;5.30;;
1414;SDS011;702;49.466;11.086;2023-07-20T03:56:45;8.67;;;6.30;;
1414;SDS011;702;49.466;11.086;2023-07-20T03:59:12;5.93;;;5.43;;
1414;SDS011;702;49.466;11.086;2023-07-20T04:01:40;6.30;;;5.70;;
1414;SDS011;702;49.466;11.086;2023-07-20T04:04:07;6.67;;;5.87;;
1414;SDS011;702;49.466;11.086;2023-07-20T04:06:36;6.60;;;5.90;;
1414;SDS011;702;49.466;11.086;2023-07-20T04:09:04;6.20;;;5.60;;
1414;SDS011;702;49.466;11.086;2023-07-20T04:11:31;6.97;;;6.03;;
1414;SDS011;702;49.466;11.086;2023-07-20T04:13:58;6.30;;;5.70;;
1414;SDS011;702;49.466;11.086;2023-07-20T04:16:25;6.27;;;5.63;;
1414;SDS011;702;49.466;11.086;2023-07-20T04:18:54;6.33;;;5.83;;
1414;SDS011;702;49.466;11.086;2023-07-20T04:21:22;6.27;;;5.30;;
1414;SDS011;702;49.466;11.086;2023-07-20T04:23:51;7.47;;;5.40;;
1414;SDS011;702;49.466;11.086;2023-07-20T04:26:18;6.73;;;6.10;;
1414;SDS011;702;49.466;11.086;2023-07-20T04:28:46;6.93;;;6.17;;
1414;SDS011;702;49.466;11.086;2023-07-20T04:31:14;6.13;;;5.60;;
1414;SDS011;702;49.466;11.086;2023-07-20T04:33:42;9.30;;;5.60;;
1414;SDS011;702;49.466;11.086;2023-07-20T04:36:09;6.03;;;5.53;;
1414;SDS011;702;49.466;11.086;2023-07-20T04:38:36;6.27;;;5.67;;
1414;SDS011;702;49.466;11.086;2023-07-20T04:41:08;6.30;;;5.70;;
1414;SDS011;702;49.466;11.086;2023-07-20T04:43:40;6.30;;;5.70;;
1414;SDS011;702;49.466;11.086;2023-07-20T04:46:09;8.60;;;5.93;;
1414;SDS011;702;49.466;11.086;2023-07-20T04:48:38;5.70;;;5.17;;
1414;SDS011;702;49.466;11.086;2023-07-20T04:51:08;6.00;;;5.13;;
1414;SDS011;702;49.466;11.086;2023-07-20T04:53:37;5.13;;;4.63;;
1414;SDS011;702;49.466;11.086;2023-07-20T04:56:10;5.60;;;5.00;;
1414;SDS011;702;49.466;11.086;2023-07-20T04:58:46;5.90;;;5.30;;
1414;SDS011;702;49.466;11.086;2023-07-20T05:01:36;5.87;;;5.27;;
1414;SDS011;702;49.466;11.086;2023-07-20T05:04:09;6.30;;;4.80;;
1414;SDS011;702;49.466;11.086;2023-07-20T05:06:38;8.27;;;4.43;;
1414;SDS011;702;49.466;11.086;2023-07-20T05:09:07;7.23;;;5.10;;
1414;SDS011;702;49.466;11.086;2023-07-20T05:11:36;4.53;;;4.00;;
1414;SDS011;702;49.466;11.086;2023-07-20T05:14:04;4.70;;;4.07;;
1414;SDS011;702;49.466;11.086;2023-07-20T05:16:33;4.80;;;4.40;;
1414;SDS011;702;49.466;11.086;2023-07-20T05:19:00;5.23;;;3.53;;
1414;SDS011;702;49.466;11.086;2023-07-20T05:21:27;5.00;;;4.60;;
1414;SDS011;702;49.466;11.086;2023-07-20T05:23:55;5.40;;;4.87;;
1414;SDS011;702;49.466;11.086;2023-07-20T05:26:22;6.77;;;4.67;;
1414;SDS011;702;49.466;11.086;2023-07-20T05:28:51;4.80;;;4.30;;
1414;SDS011;702;49.466;11.086;2023-07-20T05:31:18;5.07;;;4.57;;
1414;SDS011;702;49.466;11.086;2023-07-20T05:33:45;5.80;;;5.20;;
1414;SDS011;702;49.466;11.086;2023-07-20T05:36:12;5.37;;;4.83;;
1414;SDS011;702;49.466;11.086;2023-07-20T05:38:40;4.97;;;4.40;;
1414;SDS011;702;49.466;11.086;2023-07-20T05:41:07;15.73;;;5.33;;
1414;SDS011;702;49.466;11.086;2023-07-20T05:43:35;5.83;;;4.80;;
1414;SDS011;702;49.466;11.086;2023-07-20T05:46:05;6.93;;;4.30;;
1414;SDS011;702;49.466;11.086;2023-07-20T05:48:32;4.37;;;4.00;;
1414;SDS011;702;49.466;11.086;2023-07-20T05:51:00;4.93;;;4.53;;
1414;SDS011;702;49.466;11.086;2023-07-20T05:53:28;5.10;;;4.60;;
1414;SDS011;702;49.466;11.086;2023-07-20T05:55:55;6.50;;;4.43;;
1414;SDS011;702;49.466;11.086;2023-07-20T05:58:22;6.13;;;5.20;;
1414;SDS011;702;49.466;11.086;2023-07-20T06:00:50;5.90;;;4.77;;
1414;SDS011;702;49.466;11.086;2023-07-20T06:03:18;5.20;;;4.70;;
1414;SDS011;702;49.466;11.086;2023-07-20T06:05:46;4.17;;;3.77;;
1414;SDS011;702;49.466;11.086;2023-07-20T06:08:13;5.73;;;4.10;;
1414;SDS011;702;49.466;11.086;2023-07-20T06:10:40;3.97;;;3.50;;
1414;SDS011;702;49.466;11.086;2023-07-20T06:13:08;3.73;;;3.43;;
1414;SDS011;702;49.466;11.086;2023-07-20T06:15:35;4.47;;;3.37;;
1414;SDS011;702;49.466;11.086;2023-07-20T06:18:04;4.50;;;4.13;;
1414;SDS011;702;49.466;11.086;2023-07-20T06:20:33;4.60;;;4.20;;
1414;SDS011;702;49.466;11.086;2023-07-20T06:23:00;4.73;;;3.90;;
1414;SDS011;702;49.466;11.086;2023-07-20T06:25:27;5.50;;;3.53;;
1414;SDS011;702;49.466;11.086;2023-07-20T06:27:57;5.77;;;4.17;;
1414;SDS011;702;49.466;11.086;2023-07-20T06:30:24;4.20;;;3.80;;
1414;SDS011;702;49.466;11.086;2023-07-20T06:32:51;4.00;;;3.57;;
1414;SDS011;702;49.466;11.086;2023-07-20T06:35:18;4.90;;;3.57;;
1414;SDS011;702;49.466;11.086;2023-07-20T06:37:47;5.03;;;4.10;;
1414;SDS011;702;49.466;11.086;2023-07-20T06:40:14;4.30;;;3.90;;
1414;SDS011;702;49.466;11.086;2023-07-20T06:42:42;5.37;;;4.23;;
1414;SDS011;702;49.466;11.086;2023-07-20T06:45:09;4.43;;;3.60;;
1414;SDS011;702;49.466;11.086;2023-07-20T06:47:37;5.00;;;4.53;;
1414;SDS011;702;49.466;11.086;2023-07-20T06:50:05;4.97;;;4.40;;
1414;SDS011;702;49.466;11.086;2023-07-20T06:52:33;8.20;;;4.20;;
1414;SDS011;702;49.466;11.086;2023-07-20T06:55:02;7.10;;;5.00;;
1414;SDS011;702;49.466;11.086;2023-07-20T06:57:30;8.57;;;4.93;;
1414;SDS011;702;49.466;11.086;2023-07-20T06:59:57;5.00;;;4.40;;
1414;SDS011;702;49.466;11.086;2023-07-20T07:02:24;4.87;;;4.47;;
1414;SDS011;702;49.466;11.086;2023-07-20T07:04:51;4.10;;;3.80;;
1414;SDS011;702;49.466;11.086;2023-07-20T07:07:20;5.63;;;3.80;;
1414;SDS011;702;49.466;11.086;2023-07-20T07:09:47;5.77;;;3.80;;
1414;SDS011;702;49.466;11.086;2023-07-20T07:12:16;6.03;;;4.63;;
1414;SDS011;702;49.466;11.086;2023-07-20T07:14:43;3.57;;;3.27;;
1414;SDS011;702;49.466;11.086;2023-07-20T07:17:10;5.10;;;3.87;;
1414;SDS011;702;49.466;11.086;2023-07-20T07:19:37;3.20;;;2.90;;
1414;SDS011;702;49.466;11.086;2023-07-20T07:22:06;3.40;;;3.10;;
1414;SDS011;702;49.466;11.086;2023-07-20T07:24:33;3.60;;;3.30;;
1414;SDS011;702;49.466;11.086;2023-07-20T07:27:00;6.77;;;3.00;;
1414;SDS011;702;49.466;11.086;2023-07-20T07:29:28;4.50;;;2.90;;
1414;SDS011;702;49.466;11.086;2023-07-20T07:31:55;5.20;;;2.70;;
1414;SDS011;702;49.466;11.086;2023-07-20T07:34:23;3.20;;;2.50;;
1414;SDS011;702;49.466;11.086;2023-07-20T07:36:51;2.80;;;2.50;;
1414;SDS011;702;49.466;11.086;2023-07-20T07:39:19;3.00;;;2.70;;
1414;SDS011;702;49.466;11.086;2023-07-20T07:41:46;2.63;;;2.43;;
1414;SDS011;702;49.466;11.086;2023-07-20T07:44:13;2.67;;;2.47;;
1414;SDS011;702;49.466;11.086;2023-07-20T07:46:42;8.43;;;3.03;;
1414;SDS011;702;49.466;11.086;2023-07-20T07:49:09;4.73;;;2.67;;
1414;SDS011;702;49.466;11.086;2023-07-20T07:51:37;3.97;;;2.50;;
1414;SDS011;702;49.466;11.086;2023-07-20T07:54:04;2.87;;;2.40;;
1414;SDS011;702;49.466;11.086;2023-07-20T07:56:31;3.40;;;2.70;;
1414;SDS011;702;49.466;11.086;2023-07-20T07:58:58;3.03;;;2.33;;
1414;SDS011;702;49.466;11.086;2023-07-20T08:01:26;3.00;;;1.90;;
1414;SDS011;702;49.466;11.086;2023-07-20T08:03:54;2.17;;;1.97;;
1414;SDS011;702;49.466;11.086;2023-07-20T08:06:22;2.93;;;1.73;;
1414;SDS011;702;49.466;11.086;2023-07-20T08:08:49;2.67;;;2.20;;
1414;SDS011;702;49.466;11.086;2023-07-20T08:11:16;2.90;;;2.17;;
1414;SDS011;702;49.466;11.086;2023-07-20T08:13:44;6.00;;;2.23;;
1414;SDS011;702;49.466;11.086;2023-07-20T08:16:11;4.63;;;2.27;;
1414;SDS011;702;49.466;11.086;2023-07-20T08:18:39;2.10;;;1.90;;
1414;SDS011;702;49.466;11.086;2023-07-20T08:21:07;2.77;;;2.50;;
1414;SDS011;702;49.466;11.086;2023-07-20T08:23:34;3.10;;;2.00;;
1414;SDS011;702;49.466;11.086;2023-07-20T08:26:02;4.53;;;2.30;;
1414;SDS011;702;49.466;11.086;2023-07-20T08:28:30;2.30;;;2.10;;
1414;SDS011;702;49.466;11.086;2023-07-20T08:30:57;2.67;;;1.83;;
1414;SDS011;702;49.466;11.086;2023-07-20T08:33:24;2.13;;;1.93;;
1414;SDS011;702;49.466;11.086;2023-07-20T08:35:54;2.03;;;1.93;;
1414;SDS011;702;49.466;11.086;2023-07-20T08:38:24;4.47;;;1.63;;
1414;SDS011;702;49.466;11.086;2023-07-20T08:40:51;1.90;;;1.80;;
1414;SDS011;702;49.466;11.086;2023-07-20T08:43:19;3.40;;;1.70;;
1414;SDS011;702;49.466;11.086;2023-07-20T08:45:49;1.73;;;1.63;;
1414;SDS011;702;49.466;11.086;2023-07-20T08:48:18;2.83;;;1.93;;
1414;SDS011;702;49.466;11.086;2023-07-20T08:50:47;2.03;;;1.80;;
1414;SDS011;702;49.466;11.086;2023-07-20T08:53:16;2.90;;;2.07;;
1414;SDS011;702;49.466;11.086;2023-07-20T08:55:45;4.00;;;1.87;;
1414;SDS011;702;49.466;11.086;2023-07-20T08:58:12;2.70;;;1.83;;
1414;SDS011;702;49.466;11.086;2023-07-20T09:00:41;2.00;;;1.80;;
1414;SDS011;702;49.466;11.086;2023-07-20T09:03:08;2.30;;;1.70;;
1414;SDS011;702;49.466;11.086;2023-07-20T09:05:37;2.10;;;1.70;;
1414;SDS011;702;49.466;11.086;2023-07-20T09:08:05;1.70;;;1.60;;
1414;SDS011;702;49.466;11.086;2023-07-20T09:10:33;2.20;;;1.83;;
1414;SDS011;702;49.466;11.086;2023-07-20T09:13:02;3.20;;;1.70;;
1414;SDS011;702;49.466;11.086;2023-07-20T09:15:29;2.50;;;2.00;;
1414;SDS011;702;49.466;11.086;2023-07-20T09:17:58;1.70;;;1.40;;
1414;SDS011;702;49.466;11.086;2023-07-20T09:20:31;4.30;;;1.60;;
1414;SDS011;702;49.466;11.086;2023-07-20T09:22:59;2.60;;;2.17;;
1414;SDS011;702;49.466;11.086;2023-07-20T09:25:32;3.40;;;1.80;;
1414;SDS011;702;49.466;11.086;2023-07-20T09:28:02;2.80;;;1.50;;
1414;SDS011;702;49.466;11.086;2023-07-20T09:30:30;1.30;;;1.20;;
1414;SDS011;702;49.466;11.086;2023-07-20T09:32:57;2.10;;;1.67;;
1414;SDS011;702;49.466;11.086;2023-07-20T09:35:25;1.70;;;1.50;;
1414;SDS011;702;49.466;11.086;2023-07-20T09:37:54;1.37;;;1.27;;
1414;SDS011;702;49.466;11.086;2023-07-20T09:40:25;2.13;;;1.73;;
1414;SDS011;702;49.466;11.086;2023-07-20T09:42:53;2.20;;;1.43;;
1414;SDS011;702;49.466;11.086;2023-07-20T09:45:29;1.40;;;1.30;;
1414;SDS011;702;49.466;11.086;2023-07-20T09:48:02;1.90;;;1.80;;
1414;SDS011;702;49.466;11.086;2023-07-20T09:50:31;2.10;;;1.50;;
1414;SDS011;702;49.466;11.086;2023-07-20T09:52:59;1.40;;;1.10;;
1414;SDS011;702;49.466;11.086;2023-07-20T09:55:27;1.40;;;1.23;;
1414;SDS011;702;49.466;11.086;2023-07-20T09:57:56;2.17;;;1.73;;
1414;SDS011;702;49.466;11.086;2023-07-20T10:00:23;1.50;;;1.40;;
1414;SDS011;702;49.466;11.086;2023-07-20T10:02:51;1.50;;;1.03;;
1414;SDS011;702;49.466;11.086;2023-07-20T10:05:20;1.93;;;1.57;;
1414;SDS011;702;49.466;11.086;2023-07-20T10:07:48;1.53;;;1.30;;
1414;SDS011;702;49.466;11.086;2023-07-20T10:10:17;1.40;;;1.00;;
1414;SDS011;702;49.466;11.086;2023-07-20T10:12:47;2.13;;;1.23;;
1414;SDS011;702;49.466;11.086;2023-07-20T10:15:18;1.77;;;0.90;;
1414;SDS011;702;49.466;11.086;2023-07-20T10:17:56;1.30;;;1.10;;
1414;SDS011;702;49.466;11.086;2023-07-20T10:20:29;1.37;;;1.27;;
1414;SDS011;702;49.466;11.086;2023-07-20T10:22:59;2.30;;;1.40;;
1414;SDS011;702;49.466;11.086;2023-07-20T10:25:28;1.20;;;1.10;;
1414;SDS011;702;49.466;11.086;2023-07-20T10:27:55;1.40;;;1.00;;
1414;SDS011;702;49.466;11.086;2023-07-20T10:30:24;1.30;;;1.20;;
1414;SDS011;702;49.466;11.086;2023-07-20T10:32:54;2.37;;;1.30;;
1414;SDS011;702;49.466;11.086;2023-07-20T10:35:21;1.20;;;1.10;;
1414;SDS011;702;49.466;11.086;2023-07-20T10:37:49;1.30;;;1.20;;
1414;SDS011;702;49.466;11.086;2023-07-20T10:40:28;3.90;;;1.20;;
1414;SDS011;702;49.466;11.086;2023-07-20T10:43:00;3.20;;;1.30;;
1414;SDS011;702;49.466;11.086;2023-07-20T10:45:33;0.87;;;0.87;;
1414;SDS011;702;49.466;11.086;2023-07-20T10:48:16;1.20;;;1.10;;
1414;SDS011;702;49.466;11.086;2023-07-20T10:50:45;1.10;;;1.00;;
1414;SDS011;702;49.466;11.086;2023-07-20T10:53:36;1.80;;;0.87;;
1414;SDS011;702;49.466;11.086;2023-07-20T10:56:09;1.23;;;1.00;;
1414;SDS011;702;49.466;11.086;2023-07-20T10:58:39;1.20;;;1.10;;
1414;SDS011;702;49.466;11.086;2023-07-20T11:01:07;1.17;;;1.10;;
1414;SDS011;702;49.466;11.086;2023-07-20T11:03:37;1.07;;;0.90;;
1414;SDS011;702;49.466;11.086;2023-07-20T11:06:29;1.60;;;1.23;;
1414;SDS011;702;49.466;11.086;2023-07-20T11:09:03;1.03;;;0.93;;
1414;SDS011;702;49.466;11.086;2023-07-20T11:11:34;1.27;;;1.00;;
1414;SDS011;702;49.466;11.086;2023-07-20T11:14:04;1.30;;;1.20;;
1414;SDS011;702;49.466;11.086;2023-07-20T11:16:36;1.20;;;1.10;;
1414;SDS011;702;49.466;11.086;2023-07-20T11:19:13;1.00;;;0.60;;
1414;SDS011;702;49.466;11.086;2023-07-20T11:21:42;1.30;;;0.90;;
1414;SDS011;702;49.466;11.086;2023-07-20T11:24:12;0.93;;;0.87;;
1414;SDS011;702;49.466;11.086;2023-07-20T11:26:40;1.20;;;1.10;;
1414;SDS011;702;49.466;11.086;2023-07-20T11:29:10;1.10;;;0.97;;
1414;SDS011;702;49.466;11.086;2023-07-20T11:31:38;2.27;;;1.00;;
1414;SDS011;702;49.466;11.086;2023-07-20T11:34:09;0.97;;;0.90;;
1414;SDS011;702;49.466;11.086;2023-07-20T11:36:39;2.47;;;2.00;;
1414;SDS011;702;49.466;11.086;2023-07-20T11:39:08;1.60;;;1.40;;
1414;SDS011;702;49.466;11.086;2023-07-20T11:41:36;2.67;;;1.40;;
1414;SDS011;702;49.466;11.086;2023-07-20T11:44:03;1.33;;;1.23;;
1414;SDS011;702;49.466;11.086;2023-07-20T11:46:33;1.10;;;1.00;;
1414;SDS011;702;49.466;11.086;2023-07-20T11:49:01;1.10;;;1.00;;
1414;SDS011;702;49.466;11.086;2023-07-20T11:51:31;2.27;;;1.50;;
1414;SDS011;702;49.466;11.086;2023-07-20T11:53:58;3.23;;;1.30;;
1414;SDS011;702;49.466;11.086;2023-07-20T11:56:28;1.40;;;1.13;;
1414;SDS011;702;49.466;11.086;2023-07-20T11:58:56;2.43;;;1.07;;
1414;SDS011;702;49.466;11.086;2023-07-20T12:01:26;1.83;;;1.23;;
1414;SDS011;702;49.466;11.086;2023-07-20T12:03:57;1.40;;;1.07;;
1414;SDS011;702;49.466;11.086;2023-07-20T12:06:27;2.67;;;1.00;;
1414;SDS011;702;49.466;11.086;2023-07-20T12:08:57;2.23;;;0.93;;
1414;SDS011;702;49.466;11.086;2023-07-20T12:11:32;1.20;;;1.10;;
1414;SDS011;702;49.466;11.086;2023-07-20T12:14:00;1.70;;;1.20;;
1414;SDS011;702;49.466;11.086;2023-07-20T12:16:28;1.60;;;1.03;;
1414;SDS011;702;49.466;11.086;2023-07-20T12:18:59;0.83;;;0.83;;
1414;SDS011;702;49.466;11.086;2023-07-20T12:21:28;1.50;;;0.90;;
1414;SDS011;702;49.466;11.086;2023-07-20T12:23:57;0.90;;;0.90;;
1414;SDS011;702;49.466;11.086;2023-07-20T12:26:24;1.07;;;0.90;;
1414;SDS011;702;49.466;11.086;2023-07-20T12:28:52;1.63;;;1.10;;
1414;SDS011;702;49.466;11.086;2023-07-20T12:31:20;0.83;;;0.80;;
1414;SDS011;702;49.466;11.086;2023-07-20T12:33:49;1.63;;;1.03;;
1414;SDS011;702;49.466;11.086;2023-07-20T12:36:17;1.13;;;0.90;;
1414;SDS011;702;49.466;11.086;2023-07-20T12:38:44;0.77;;;0.63;;
1414;SDS011;702;49.466;11.086;2023-07-20T12:41:13;1.40;;;1.10;;
1414;SDS011;702;49.466;11.086;2023-07-20T12:43:41;2.40;;;1.43;;
1414;SDS011;702;49.466;11.086;2023-07-20T12:46:08;1.27;;;1.17;;
1414;SDS011;702;49.466;11.086;2023-07-20T12:48:37;2.17;;;1.13;;
1414;SDS011;702;49.466;11.086;2023-07-20T12:51:06;1.13;;;0.97;;
1414;SDS011;702;49.466;11.086;2023-07-20T12:53:33;1.70;;;1.20;;
1414;SDS011;702;49.466;11.086;2023-07-20T12:56:01;3.70;;;1.40;;
1414;SDS011;702;49.466;11.086;2023-07-20T12:58:29;2.83;;;1.20;;
1414;SDS011;702;49.466;11.086;2023-07-20T13:00:57;1.27;;;0.93;;
1414;SDS011;702;49.466;11.086;2023-07-20T13:03:24;2.80;;;1.10;;
1414;SDS011;702;49.466;11.086;2023-07-20T13:05:51;3.37;;;1.20;;
1414;SDS011;702;49.466;11.086;2023-07-20T13:08:18;1.47;;;1.00;;
1414;SDS011;702;49.466;11.086;2023-07-20T13:10:46;1.37;;;1.27;;
1414;SDS011;702;49.466;11.086;2023-07-20T13:13:14;2.23;;;1.60;;
1414;SDS011;702;49.466;11.086;2023-07-20T13:15:42;3.30;;;1.23;;
1414;SDS011;702;49.466;11.086;2023-07-20T13:18:11;2.17;;;1.33;;
1414;SDS011;702;49.466;11.086;2023-07-20T13:20:38;2.33;;;1.53;;
1414;SDS011;702;49.466;11.086;2023-07-20T13:23:06;1.17;;;1.03;;
1414;SDS011;702;49.466;11.086;2023-07-20T13:25:33;6.17;;;1.10;;
1414;SDS011;702;49.466;11.086;2023-07-20T13:28:00;1.27;;;1.10;;
1414;SDS011;702;49.466;11.086;2023-07-20T13:30:28;1.13;;;0.97;;
1414;SDS011;702;49.466;11.086;2023-07-20T13:32:56;2.00;;;1.10;;
1414;SDS011;702;49.466;11.086;2023-07-20T13:35:24;1.13;;;1.07;;
1414;SDS011;702;49.466;11.086;2023-07-20T13:37:51;1.10;;;1.00;;
1414;SDS011;702;49.466;11.086;2023-07-20T13:40:18;1.20;;;1.10;;
1414;SDS011;702;49.466;11.086;2023-07-20T13:42:47;4.53;;;1.10;;
1414;SDS011;702;49.466;11.086;2023-07-20T13:45:15;1.67;;;1.57;;
1414;SDS011;702;49.466;11.086;2023-07-20T13:47:42;1.40;;;1.10;;
1414;SDS011;702;49.466;11.086;2023-07-20T13:50:11;1.70;;;0.87;;
1414;SDS011;702;49.466;11.086;2023-07-20T13:52:38;1.30;;;1.20;;
1414;SDS011;702;49.466;11.086;2023-07-20T13:55:06;1.30;;;1.20;;
1414;SDS011;702;49.466;11.086;2023-07-20T13:57:34;2.50;;;1.10;;
1414;SDS011;702;49.466;11.086;2023-07-20T14:00:01;1.67;;;1.23;;
1414;SDS011;702;49.466;11.086;2023-07-20T14:02:30;2.20;;;1.37;;
1414;SDS011;702;49.466;11.086;2023-07-20T14:04:58;1.60;;;1.47;;
1414;SDS011;702;49.466;11.086;2023-07-20T14:07:27;1.07;;;1.00;;
1414;SDS011;702;49.466;11.086;2023-07-20T14:09:54;2.30;;;1.20;;
1414;SDS011;702;49.466;11.086;2023-07-20T14:12:21;1.33;;;1.07;;
1414;SDS011;702;49.466;11.086;2023-07-20T14:14:48;0.90;;;0.90;;
1414;SDS011;702;49.466;11.086;2023-07-20T14:17:16;1.77;;;1.17;;
1414;SDS011;702;49.466;11.086;2023-07-20T14:19:43;1.43;;;1.33;;
1414;SDS011;702;49.466;11.086;2023-07-20T14:22:10;1.00;;;0.90;;
1414;SDS011;702;49.466;11.086;2023-07-20T14:24:39;1.30;;;1.20;;
1414;SDS011;702;49.466;11.086;2023-07-20T14:27:07;1.00;;;0.90;;
1414;SDS011;702;49.466;11.086;2023-07-20T14:29:34;1.07;;;0.93;;
1414;SDS011;702;49.466;11.086;2023-07-20T14:32:02;1.90;;;1.60;;
1414;SDS011;702;49.466;11.086;2023-07-20T14:34:31;1.37;;;1.27;;
1414;SDS011;702;49.466;11.086;2023-07-20T14:36:58;1.13;;;0.93;;
1414;SDS011;702;49.466;11.086;2023-07-20T14:39:26;3.90;;;1.10;;
1414;SDS011;702;49.466;11.086;2023-07-20T14:41:54;1.67;;;1.40;;
1414;SDS011;702;49.466;11.086;2023-07-20T14:44:22;1.67;;;1.40;;
1414;SDS011;702;49.466;11.086;2023-07-20T14:46:49;1.50;;;1.40;;
1414;SDS011;702;49.466;11.086;2023-07-20T14:49:16;2.40;;;1.17;;
1414;SDS011;702;49.466;11.086;2023-07-20T14:51:44;2.10;;;1.63;;
1414;SDS011;702;49.466;11.086;2023-07-20T14:54:12;0.87;;;0.83;;
1414;SDS011;702;49.466;11.086;2023-07-20T14:56:39;1.40;;;1.20;;
1414;SDS011;702;49.466;11.086;2023-07-20T14:59:19;1.20;;;1.00;;
1414;SDS011;702;49.466;11.086;2023-07-20T15:01:46;1.40;;;1.30;;
1414;SDS011;702;49.466;11.086;2023-07-20T15:04:14;1.30;;;0.90;;
1414;SDS011;702;49.466;11.086;2023-07-20T15:06:41;1.47;;;1.10;;
1414;SDS011;702;49.466;11.086;2023-07-20T15:09:09;1.73;;;1.30;;
1414;SDS011;702;49.466;11.086;2023-07-20T15:11:36;0.90;;;0.90;;
1414;SDS011;702;49.466;11.086;2023-07-20T15:14:04;2.20;;;1.50;;
1414;SDS011;702;49.466;11.086;2023-07-20T15:16:32;2.87;;;1.33;;
1414;SDS011;702;49.466;11.086;2023-07-20T15:19:01;3.20;;;1.20;;
1414;SDS011;702;49.466;11.086;2023-07-20T15:21:28;2.63;;;1.50;;
1414;SDS011;702;49.466;11.086;2023-07-20T15:23:56;1.60;;;0.90;;